sensor_id;sensor_type;location;lat;lon;timestamp;pressure;altitude;pressure_sealevel;temperature;humidity
20105;BME280;10212;42.714;23.310;2023-09-19T00:09:24;95589.94;;;15.45;85.95
20105;BME280;10212;42.714;23.310;2023-09-19T00:19:29;95589.72;;;15.27;87.20
20105;BME280;10212;42.714;23.310;2023-09-19T00:29:29;95581.63;;;15.29;87.17
20105;BME280;10212;42.714;23.310;2023-09-19T00:39:31;95561.41;;;15.29;87.66
20105;BME280;10212;42.714;23.310;2023-09-19T00:49:32;95564.63;;;15.31;87.64
20105;BME280;10212;42.714;23.310;2023-09-19T00:59:34;95567.03;;;15.33;87.97
20105;BME280;10212;42.714;23.310;2023-09-19T01:09:35;95569.94;;;15.25;88.51
20105;BME280;10212;42.714;23.310;2023-09-19T01:20:01;95574.78;;;15.28;89.00
20105;BME280;10212;42.714;23.310;2023-09-19T01:30:17;95576.81;;;15.26;89.16
20105;BME280;10212;42.714;23.310;2023-09-19T01:40:22;95573.47;;;15.00;90.62
20105;BME280;10212;42.714;23.310;2023-09-19T02:00:34;95575.47;;;14.79;92.36
20105;BME280;10212;42.714;23.310;2023-09-19T02:10:36;95569.22;;;14.80;92.21
20105;BME280;10212;42.714;23.310;2023-09-19T02:20:39;95570.72;;;14.69;93.34
20105;BME280;10212;42.714;23.310;2023-09-19T02:30:39;95556.50;;;14.58;93.44
20105;BME280;10212;42.714;23.310;2023-09-19T02:40:40;95552.28;;;14.76;93.08
20105;BME280;10212;42.714;23.310;2023-09-19T02:50:40;95536.59;;;14.69;92.75
20105;BME280;10212;42.714;23.310;2023-09-19T03:00:41;95534.38;;;14.91;91.97
20105;BME280;10212;42.714;23.310;2023-09-19T03:10:42;95528.59;;;14.64;92.61
20105;BME280;10212;42.714;23.310;2023-09-19T03:20:43;95515.44;;;14.45;93.62
20105;BME280;10212;42.714;23.310;2023-09-19T03:30:44;95517.84;;;14.46;94.37
20105;BME280;10212;42.714;23.310;2023-09-19T03:40:45;95535.19;;;14.47;94.06
20105;BME280;10212;42.714;23.310;2023-09-19T03:50:45;95539.97;;;14.06;95.80
20105;BME280;10212;42.714;23.310;2023-09-19T04:00:45;95540.44;;;13.96;98.14
20105;BME280;10212;42.714;23.310;2023-09-19T04:10:46;95556.19;;;13.96;96.97
20105;BME280;10212;42.714;23.310;2023-09-19T04:20:50;95554.91;;;14.06;97.31
20105;BME280;10212;42.714;23.310;2023-09-19T04:30:50;95549.34;;;14.46;94.73
20105;BME280;10212;42.714;23.310;2023-09-19T04:40:57;95544.41;;;14.57;94.36
20105;BME280;10212;42.714;23.310;2023-09-19T04:50:57;95541.25;;;14.92;92.68
20105;BME280;10212;42.714;23.310;2023-09-19T05:00:59;95532.34;;;14.93;91.94
20105;BME280;10212;42.714;23.310;2023-09-19T05:11:04;95536.84;;;15.24;90.55
20105;BME280;10212;42.714;23.310;2023-09-19T05:21:05;95531.97;;;15.39;89.20
20105;BME280;10212;42.714;23.310;2023-09-19T05:31:05;95521.38;;;15.46;89.08
20105;BME280;10212;42.714;23.310;2023-09-19T05:41:05;95512.66;;;15.76;87.69
20105;BME280;10212;42.714;23.310;2023-09-19T05:51:07;95515.97;;;16.02;85.71
20105;BME280;10212;42.714;23.310;2023-09-19T06:01:07;95513.91;;;16.17;84.67
20105;BME280;10212;42.714;23.310;2023-09-19T06:11:08;95499.03;;;16.46;83.71
20105;BME280;10212;42.714;23.310;2023-09-19T06:21:09;95508.88;;;16.75;82.14
20105;BME280;10212;42.714;23.310;2023-09-19T06:31:10;95490.97;;;16.89;80.89
20105;BME280;10212;42.714;23.310;2023-09-19T06:41:10;95502.06;;;17.32;79.40
20105;BME280;10212;42.714;23.310;2023-09-19T06:51:11;95501.59;;;17.35;78.31
20105;BME280;10212;42.714;23.310;2023-09-19T07:01:12;95516.41;;;17.54;78.13
20105;BME280;10212;42.714;23.310;2023-09-19T07:11:15;95511.66;;;17.68;77.89
20105;BME280;10212;42.714;23.310;2023-09-19T07:21:16;95516.44;;;17.71;77.47
20105;BME280;10212;42.714;23.310;2023-09-19T07:31:16;95508.00;;;18.03;76.16
20105;BME280;10212;42.714;23.310;2023-09-19T07:41:17;95507.53;;;18.41;74.76
20105;BME280;10212;42.714;23.310;2023-09-19T07:51:17;95503.88;;;18.64;73.31
20105;BME280;10212;42.714;23.310;2023-09-19T08:01:18;95517.41;;;18.51;72.33
20105;BME280;10212;42.714;23.310;2023-09-19T08:11:18;95491.19;;;18.44;72.96
20105;BME280;10212;42.714;23.310;2023-09-19T08:21:22;95490.63;;;18.82;71.46
20105;BME280;10212;42.714;23.310;2023-09-19T08:31:23;95484.25;;;19.22;70.61
20105;BME280;10212;42.714;23.310;2023-09-19T08:41:25;95489.09;;;19.63;68.15
20105;BME280;10212;42.714;23.310;2023-09-19T08:51:27;95473.25;;;19.96;67.11
20105;BME280;10212;42.714;23.310;2023-09-19T09:01:31;95470.03;;;19.89;65.67
20105;BME280;10212;42.714;23.310;2023-09-19T09:11:33;95462.88;;;19.90;65.90
20105;BME280;10212;42.714;23.310;2023-09-19T09:21:33;95454.25;;;20.43;64.03
20105;BME280;10212;42.714;23.310;2023-09-19T09:31:37;95440.94;;;20.91;62.69
20105;BME280;10212;42.714;23.310;2023-09-19T09:41:38;95429.94;;;21.41;60.58
20105;BME280;10212;42.714;23.310;2023-09-19T09:51:41;95412.16;;;21.94;59.05
20105;BME280;10212;42.714;23.310;2023-09-19T10:01:47;95417.19;;;22.01;58.70
20105;BME280;10212;42.714;23.310;2023-09-19T10:12:05;95408.38;;;22.26;57.00
20105;BME280;10212;42.714;23.310;2023-09-19T10:22:08;95402.81;;;22.28;56.98
20105;BME280;10212;42.714;23.310;2023-09-19T10:32:12;95398.94;;;22.76;55.87
20105;BME280;10212;42.714;23.310;2023-09-19T10:42:19;95398.91;;;22.81;55.36
20105;BME280;10212;42.714;23.310;2023-09-19T10:52:23;95376.56;;;22.82;55.02
20105;BME280;10212;42.714;23.310;2023-09-19T11:02:25;95377.72;;;23.11;54.93
20105;BME280;10212;42.714;23.310;2023-09-19T11:43:28;95317.06;;;23.78;53.57
20105;BME280;10212;42.714;23.310;2023-09-19T11:53:31;95318.22;;;23.42;53.37
20105;BME280;10212;42.714;23.310;2023-09-19T12:03:37;95299.84;;;23.05;55.20
20105;BME280;10212;42.714;23.310;2023-09-19T12:13:45;95282.03;;;23.35;54.68
20105;BME280;10212;42.714;23.310;2023-09-19T12:23:57;95269.19;;;23.48;54.35
20105;BME280;10212;42.714;23.310;2023-09-19T12:33:58;95260.88;;;23.55;54.85
20105;BME280;10212;42.714;23.310;2023-09-19T12:44:01;95256.22;;;23.41;55.42
20105;BME280;10212;42.714;23.310;2023-09-19T12:54:05;95253.69;;;23.55;54.30
20105;BME280;10212;42.714;23.310;2023-09-19T13:04:13;95227.72;;;23.91;53.69
20105;BME280;10212;42.714;23.310;2023-09-19T13:24:24;95217.28;;;24.19;52.31
20105;BME280;10212;42.714;23.310;2023-09-19T13:34:28;95209.06;;;24.35;51.86
20105;BME280;10212;42.714;23.310;2023-09-19T13:44:29;95196.31;;;24.51;51.72
20105;BME280;10212;42.714;23.310;2023-09-19T13:54:30;95197.59;;;24.73;50.52
20105;BME280;10212;42.714;23.310;2023-09-19T14:04:31;95194.88;;;24.59;51.95
20105;BME280;10212;42.714;23.310;2023-09-19T14:14:31;95199.28;;;25.16;51.59
20105;BME280;10212;42.714;23.310;2023-09-19T14:24:32;95194.97;;;25.48;50.59
20105;BME280;10212;42.714;23.310;2023-09-19T14:34:32;95181.84;;;25.38;50.18
20105;BME280;10212;42.714;23.310;2023-09-19T14:44:33;95182.69;;;25.19;50.54
20105;BME280;10212;42.714;23.310;2023-09-19T14:54:33;95168.34;;;24.67;52.31
20105;BME280;10212;42.714;23.310;2023-09-19T15:04:34;95165.31;;;24.41;52.67
20105;BME280;10212;42.714;23.310;2023-09-19T15:14:34;95173.56;;;24.39;53.18
20105;BME280;10212;42.714;23.310;2023-09-19T15:24:34;95154.38;;;24.23;54.58
20105;BME280;10212;42.714;23.310;2023-09-19T15:34:35;95155.63;;;24.06;55.20
20105;BME280;10212;42.714;23.310;2023-09-19T15:44:35;95162.03;;;23.86;56.31
20105;BME280;10212;42.714;23.310;2023-09-19T15:54:37;95172.22;;;23.59;56.79
20105;BME280;10212;42.714;23.310;2023-09-19T16:04:42;95176.78;;;23.29;57.70
20105;BME280;10212;42.714;23.310;2023-09-19T16:14:44;95178.75;;;22.88;58.41
20105;BME280;10212;42.714;23.310;2023-09-19T16:24:44;95195.41;;;22.64;59.19
20105;BME280;10212;42.714;23.310;2023-09-19T16:34:45;95203.25;;;22.40;59.69
20105;BME280;10212;42.714;23.310;2023-09-19T16:44:45;95209.50;;;22.20;60.63
20105;BME280;10212;42.714;23.310;2023-09-19T16:54:46;95215.63;;;22.15;62.54
20105;BME280;10212;42.714;23.310;2023-09-19T17:04:46;95220.78;;;21.90;64.47
20105;BME280;10212;42.714;23.310;2023-09-19T17:14:47;95224.59;;;21.48;66.71
20105;BME280;10212;42.714;23.310;2023-09-19T17:24:48;95229.69;;;21.23;68.22
20105;BME280;10212;42.714;23.310;2023-09-19T17:34:50;95222.31;;;20.99;69.38
20105;BME280;10212;42.714;23.310;2023-09-19T17:44:50;95240.03;;;20.78;70.40
20105;BME280;10212;42.714;23.310;2023-09-19T17:54:51;95237.38;;;20.67;71.08
20105;BME280;10212;42.714;23.310;2023-09-19T18:04:52;95257.22;;;20.44;72.86
20105;BME280;10212;42.714;23.310;2023-09-19T18:14:53;95257.94;;;20.23;74.28
20105;BME280;10212;42.714;23.310;2023-09-19T18:24:54;95254.25;;;20.19;74.47
20105;BME280;10212;42.714;23.310;2023-09-19T18:34:54;95270.97;;;20.35;72.89
20105;BME280;10212;42.714;23.310;2023-09-19T18:44:55;95282.88;;;20.38;71.67
20105;BME280;10212;42.714;23.310;2023-09-19T18:54:55;95293.47;;;20.33;71.59
20105;BME280;10212;42.714;23.310;2023-09-19T19:04:56;95301.41;;;20.38;70.68
20105;BME280;10212;42.714;23.310;2023-09-19T19:14:58;95291.91;;;20.42;69.67
20105;BME280;10212;42.714;23.310;2023-09-19T19:25:03;95297.69;;;20.29;69.66
20105;BME280;10212;42.714;23.310;2023-09-19T19:35:04;95305.09;;;20.27;69.24
20105;BME280;10212;42.714;23.310;2023-09-19T19:45:07;95318.88;;;20.29;69.39
20105;BME280;10212;42.714;23.310;2023-09-19T19:55:09;95347.56;;;19.99;70.62
20105;BME280;10212;42.714;23.310;2023-09-19T20:05:10;95402.50;;;19.86;72.59
20105;BME280;10212;42.714;23.310;2023-09-19T20:15:11;95469.63;;;17.95;91.77
20105;BME280;10212;42.714;23.310;2023-09-19T20:25:12;95553.38;;;16.52;100.00
20105;BME280;10212;42.714;23.310;2023-09-19T20:35:12;95572.03;;;16.27;100.00
20105;BME280;10212;42.714;23.310;2023-09-19T20:45:14;95585.91;;;16.34;100.00
20105;BME280;10212;42.714;23.310;2023-09-19T20:55:15;95609.75;;;16.09;100.00
20105;BME280;10212;42.714;23.310;2023-09-19T21:05:16;95637.22;;;16.13;100.00
20105;BME280;10212;42.714;23.310;2023-09-19T21:15:19;95593.78;;;15.91;100.00
20105;BME280;10212;42.714;23.310;2023-09-19T21:25:19;95538.94;;;16.07;100.00
20105;BME280;10212;42.714;23.310;2023-09-19T21:35:20;95437.06;;;16.02;100.00
20105;BME280;10212;42.714;23.310;2023-09-19T21:45:22;95450.75;;;15.93;100.00
20105;BME280;10212;42.714;23.310;2023-09-19T21:55:29;95439.53;;;15.85;100.00
20105;BME280;10212;42.714;23.310;2023-09-19T22:05:30;95464.22;;;15.84;100.00
20105;BME280;10212;42.714;23.310;2023-09-19T22:15:32;95477.16;;;15.86;100.00
20105;BME280;10212;42.714;23.310;2023-09-19T22:25:33;95454.97;;;15.94;100.00
20105;BME280;10212;42.714;23.310;2023-09-19T22:35:38;95453.94;;;15.83;100.00
20105;BME280;10212;42.714;23.310;2023-09-19T22:45:39;95445.81;;;15.84;100.00
20105;BME280;10212;42.714;23.310;2023-09-19T22:55:39;95460.00;;;15.95;100.00
20105;BME280;10212;42.714;23.310;2023-09-19T23:05:41;95428.22;;;15.97;100.00
20105;BME280;10212;42.714;23.310;2023-09-19T23:15:42;95442.16;;;15.73;100.00
20105;BME280;10212;42.714;23.310;2023-09-19T23:25:44;95442.25;;;15.78;100.00
20105;BME280;10212;42.714;23.310;2023-09-19T23:35:47;95426.16;;;15.75;100.00
20105;BME280;10212;42.714;23.310;2023-09-19T23:45:47;95417.25;;;15.76;100.00
20105;BME280;10212;42.714;23.310;2023-09-19T23:55:48;95440.69;;;15.77;100.00
